» Metar & Tafor

22 April 2019
METAR
Pukul : 03.30 UTC
Isi :

METAR WAGI 260330Z 08007KT 9999 SCT011 31/26 Q1008 NOSIG=


30 Agustus 2018
TAFOR
Pukul : 00 - 12 UTC
Isi :

TAF WAGI 252300Z 2600/2612 00000KT 1000 BR BKN007 BECMG 2600/2601 10006KT 8000 NSW BKN012 TEMPO 2605/2609 18007KT 2000 TSRA FEW012CB BKN012=


Hal: << First | < Prev | 1 | Next > | Last >>